Time;durP1;ratioP1;P1;durP2;ratioP2;P2;SDS_P1;SDS_P2;PMS_P1;PMS_P2;Temp;Humidity;BMP_temperature;BMP_pressure;BME280_temperature;BME280_humidity;BME280_pressure;Samples;Min_cycle;Max_cycle;Signal;HPM_P1;HPM_P2
2024/03/22 00:01:52;;;;;;;;;;;9.10;78.10;;;;;;4972656;28;88084;-49
2024/03/22 00:04:17;;;;;;;;;;;9.00;78.10;;;;;;4973853;28;87924;-50
2024/03/22 00:06:44;;;;;;;;;;;9.10;78.10;;;;;;4973883;28;89822;-50
2024/03/22 00:09:10;;;;;;;;;;;9.10;78.10;;;;;;4975383;28;88071;-49
2024/03/22 00:11:36;;;;;;;;;;;9.00;78.00;;;;;;4976813;28;87971;-48
2024/03/22 00:14:02;;;;;;;;;;;9.10;78.20;;;;;;4969845;28;87359;-50
2024/03/22 00:16:28;;;;;;;;;;;9.00;78.00;;;;;;4974902;28;87118;-50
2024/03/22 00:18:53;;;;;;;;;;;9.00;78.10;;;;;;4975719;28;87048;-49
2024/03/22 00:21:19;;;;;;;;;;;9.00;78.10;;;;;;4973130;28;87009;-49
2024/03/22 00:23:45;;;;;;;;;;;9.00;78.60;;;;;;4970427;28;86954;-49
2024/03/22 00:26:10;;;;;;;;;;;9.00;77.90;;;;;;4976755;28;87125;-50
2024/03/22 00:28:36;;;;;;;;;;;9.00;77.90;;;;;;4980641;28;88652;-50
2024/03/22 00:31:02;;;;;;;;;;;9.00;78.00;;;;;;4977009;28;86987;-49
2024/03/22 00:33:27;;;;;;;;;;;9.00;78.00;;;;;;4977396;28;87703;-48
2024/03/22 00:35:53;;;;;;;;;;;9.00;77.90;;;;;;4976389;28;87379;-51
2024/03/22 00:38:18;;;;;;;;;;;8.90;77.80;;;;;;4978578;28;87816;-47
2024/03/22 00:40:44;;;;;;;;;;;8.90;77.90;;;;;;4977038;28;87508;-50
2024/03/22 00:43:09;;;;;;;;;;;8.90;77.90;;;;;;4977809;28;86952;-50
2024/03/22 00:45:35;;;;;;;;;;;8.90;78.00;;;;;;4978821;28;86998;-49
2024/03/22 00:48:00;;;;;;;;;;;8.90;77.90;;;;;;4975703;28;87559;-50
2024/03/22 00:50:26;;;;;;;;;;;8.90;77.80;;;;;;4975669;28;87565;-50
2024/03/22 00:52:56;;;;;;;;;;;8.90;77.90;;;;;;4974247;28;87974;-50
2024/03/22 00:55:22;;;;;;;;;;;8.90;77.80;;;;;;4976734;28;87311;-49
2024/03/22 00:57:47;;;;;;;;;;;8.90;77.80;;;;;;4970521;28;87600;-53
2024/03/22 01:00:13;;;;;;;;;;;8.90;77.90;;;;;;4978562;28;87373;-51
2024/03/22 01:02:39;;;;;;;;;;;8.80;77.80;;;;;;4974092;28;87419;-49
2024/03/22 01:05:04;;;;;;;;;;;8.80;77.80;;;;;;4975963;28;86931;-50
2024/03/22 01:07:30;;;;;;;;;;;8.80;77.90;;;;;;4978533;28;87090;-51
2024/03/22 01:09:55;;;;;;;;;;;8.80;77.80;;;;;;4977686;28;86217;-50
2024/03/22 01:12:21;;;;;;;;;;;8.80;77.80;;;;;;4980561;28;87472;-48
2024/03/22 01:14:46;;;;;;;;;;;8.80;77.90;;;;;;4978739;28;87341;-49
2024/03/22 01:17:12;;;;;;;;;;;8.70;77.80;;;;;;4975584;28;87947;-51
2024/03/22 01:19:37;;;;;;;;;;;8.70;77.80;;;;;;4976140;28;87730;-49
2024/03/22 01:22:03;;;;;;;;;;;8.70;77.80;;;;;;4974072;28;87123;-50
2024/03/22 01:24:29;;;;;;;;;;;8.70;77.80;;;;;;4979733;28;86862;-49
2024/03/22 01:26:55;;;;;;;;;;;8.70;77.90;;;;;;4975444;28;88648;-49
2024/03/22 01:29:21;;;;;;;;;;;8.70;78.50;;;;;;4977201;28;87106;-49
2024/03/22 01:31:47;;;;;;;;;;;8.70;77.80;;;;;;4975437;28;87862;-49
2024/03/22 01:34:13;;;;;;;;;;;8.70;77.80;;;;;;4974088;28;86644;-47
2024/03/22 01:36:39;;;;;;;;;;;8.70;77.80;;;;;;4976804;28;87443;-49
2024/03/22 01:39:04;;;;;;;;;;;8.70;77.90;;;;;;4974537;28;87667;-49
2024/03/22 01:41:30;;;;;;;;;;;8.70;78.00;;;;;;4972821;28;88823;-49
2024/03/22 01:43:56;;;;;;;;;;;8.60;77.90;;;;;;4975506;28;89016;-49
2024/03/22 01:46:21;;;;;;;;;;;8.60;77.90;;;;;;4973927;28;87535;-50
2024/03/22 01:48:47;;;;;;;;;;;8.60;77.80;;;;;;4973417;28;87139;-48
2024/03/22 01:51:13;;;;;;;;;;;8.60;77.90;;;;;;4974422;28;86903;-50
2024/03/22 01:53:38;;;;;;;;;;;8.60;77.80;;;;;;4976188;28;87704;-48
2024/03/22 01:56:05;;;;;;;;;;;8.60;77.90;;;;;;4980171;28;86896;-49
2024/03/22 01:58:31;;;;;;;;;;;8.50;77.90;;;;;;4974381;28;87516;-49
2024/03/22 02:00:56;;;;;;;;;;;8.60;77.90;;;;;;4973532;28;87019;-50
2024/03/22 02:03:22;;;;;;;;;;;8.50;77.70;;;;;;4976804;28;86976;-49
2024/03/22 02:05:47;;;;;;;;;;;8.50;78.50;;;;;;4972915;28;88536;-49
2024/03/22 02:08:13;;;;;;;;;;;8.50;77.90;;;;;;4975494;28;87176;-49
2024/03/22 02:10:39;;;;;;;;;;;8.50;77.70;;;;;;4976514;28;87219;-49
2024/03/22 02:13:04;;;;;;;;;;;8.50;77.80;;;;;;4975478;28;87480;-48
2024/03/22 02:15:30;;;;;;;;;;;8.50;77.70;;;;;;4976450;28;87043;-48
2024/03/22 02:17:55;;;;;;;;;;;8.50;77.70;;;;;;4974570;28;87225;-48
2024/03/22 02:20:21;;;;;;;;;;;8.40;77.80;;;;;;4971728;28;87283;-49
2024/03/22 02:22:46;;;;;;;;;;;8.40;77.70;;;;;;4976529;28;86883;-48
2024/03/22 02:25:12;;;;;;;;;;;8.40;77.90;;;;;;4970381;28;88501;-46
2024/03/22 02:27:38;;;;;;;;;;;8.40;77.90;;;;;;4974611;28;87475;-51
2024/03/22 02:30:04;;;;;;;;;;;8.40;77.90;;;;;;4973255;28;88641;-50
2024/03/22 02:32:29;;;;;;;;;;;8.40;77.80;;;;;;4977811;28;87904;-50
2024/03/22 02:34:55;;;;;;;;;;;8.40;77.80;;;;;;4976883;28;87000;-50
2024/03/22 02:37:21;;;;;;;;;;;8.40;77.80;;;;;;4977920;28;87083;-51
2024/03/22 02:39:46;;;;;;;;;;;8.40;77.80;;;;;;4979132;28;87523;-48
2024/03/22 02:42:12;;;;;;;;;;;8.30;77.80;;;;;;4974912;28;88020;-48
2024/03/22 02:44:42;;;;;;;;;;;8.40;77.90;;;;;;4970458;28;87699;-49
2024/03/22 02:47:11;;;;;;;;;;;8.30;77.80;;;;;;4971450;28;86383;-48
2024/03/22 02:49:37;;;;;;;;;;;8.30;77.90;;;;;;4970929;28;87033;-48
2024/03/22 02:52:03;;;;;;;;;;;8.30;77.80;;;;;;4974094;28;87417;-48
2024/03/22 02:54:28;;;;;;;;;;;8.30;77.90;;;;;;4972711;28;87971;-50
2024/03/22 02:56:54;;;;;;;;;;;8.30;77.90;;;;;;4974119;28;88750;-51
2024/03/22 02:59:19;;;;;;;;;;;8.20;77.80;;;;;;4968869;28;87334;-48
2024/03/22 03:01:45;;;;;;;;;;;8.20;77.90;;;;;;4975271;28;88145;-49
2024/03/22 03:04:10;;;;;;;;;;;8.20;77.90;;;;;;4977504;28;87729;-49
2024/03/22 03:06:36;;;;;;;;;;;8.20;77.80;;;;;;4974638;28;88458;-49
2024/03/22 03:09:02;;;;;;;;;;;8.20;77.90;;;;;;4977835;28;86958;-49
2024/03/22 03:11:27;;;;;;;;;;;8.20;77.70;;;;;;4974552;28;87648;-48
2024/03/22 03:13:53;;;;;;;;;;;8.20;77.70;;;;;;4972701;28;86984;-49
2024/03/22 03:16:18;;;;;;;;;;;8.20;77.70;;;;;;4969476;28;87010;-48
2024/03/22 03:18:44;;;;;;;;;;;8.20;77.60;;;;;;4973277;28;88909;-50
2024/03/22 03:21:09;;;;;;;;;;;8.20;77.70;;;;;;4974952;28;87034;-49
2024/03/22 03:23:35;;;;;;;;;;;8.20;77.60;;;;;;4974212;28;87268;-49
2024/03/22 03:26:00;;;;;;;;;;;8.10;77.70;;;;;;4976313;28;87070;-49
2024/03/22 03:28:27;;;;;;;;;;;8.10;77.80;;;;;;4976058;28;87213;-49
2024/03/22 03:30:53;;;;;;;;;;;8.10;77.80;;;;;;4973610;28;87485;-49
2024/03/22 03:33:18;;;;;;;;;;;8.00;77.80;;;;;;4974609;28;86984;-49
2024/03/22 03:35:46;;;;;;;;;;;8.00;77.80;;;;;;4975201;28;88006;-49
2024/03/22 03:38:12;;;;;;;;;;;8.00;77.90;;;;;;4975144;28;88658;-50
2024/03/22 03:40:38;;;;;;;;;;;8.00;77.90;;;;;;4977029;28;87745;-50
2024/03/22 03:43:03;;;;;;;;;;;7.90;77.90;;;;;;4972867;28;88238;-49
2024/03/22 03:45:29;;;;;;;;;;;8.00;78.00;;;;;;4974262;28;87021;-49
2024/03/22 03:47:54;;;;;;;;;;;7.90;77.90;;;;;;4976464;28;86977;-49
2024/03/22 03:50:20;;;;;;;;;;;7.90;78.00;;;;;;4972786;28;87627;-49
2024/03/22 03:52:46;;;;;;;;;;;7.90;78.00;;;;;;4975136;28;86956;-49
2024/03/22 03:55:11;;;;;;;;;;;7.80;78.00;;;;;;4974076;28;86957;-49
2024/03/22 03:57:37;;;;;;;;;;;7.90;78.00;;;;;;4973234;28;87455;-49
2024/03/22 04:00:02;;;;;;;;;;;7.80;78.10;;;;;;4974541;28;86374;-49
2024/03/22 04:02:28;;;;;;;;;;;7.90;77.90;;;;;;4976480;28;87051;-49
2024/03/22 04:04:54;;;;;;;;;;;7.80;77.90;;;;;;4980074;28;88030;-47
2024/03/22 04:07:22;;;;;;;;;;;7.80;78.00;;;;;;4974899;28;88645;-47
2024/03/22 04:09:48;;;;;;;;;;;7.80;78.10;;;;;;4976469;28;87737;-48
2024/03/22 04:12:13;;;;;;;;;;;7.80;78.10;;;;;;4975237;28;87150;-49
2024/03/22 04:14:39;;;;;;;;;;;7.70;78.00;;;;;;4976591;28;86988;-50
2024/03/22 04:17:04;;;;;;;;;;;7.70;78.20;;;;;;4975445;28;87670;-49
2024/03/22 04:19:30;;;;;;;;;;;7.70;78.10;;;;;;4975835;28;87004;-49
2024/03/22 04:21:56;;;;;;;;;;;7.70;78.10;;;;;;4974250;28;87054;-50
2024/03/22 04:24:21;;;;;;;;;;;7.60;78.30;;;;;;4974290;28;86969;-49
2024/03/22 04:26:47;;;;;;;;;;;7.70;78.20;;;;;;4980446;28;87691;-48
2024/03/22 04:29:12;;;;;;;;;;;7.70;78.10;;;;;;4976315;28;88578;-49
2024/03/22 04:31:38;;;;;;;;;;;7.60;78.00;;;;;;4976438;28;88251;-49
2024/03/22 04:34:05;;;;;;;;;;;7.70;77.90;;;;;;4976082;28;87659;-49
2024/03/22 04:36:31;;;;;;;;;;;7.70;77.80;;;;;;4976233;28;88740;-51
2024/03/22 04:38:57;;;;;;;;;;;7.70;77.90;;;;;;4976873;28;87641;-49
2024/03/22 04:41:22;;;;;;;;;;;7.60;78.00;;;;;;4975151;28;87090;-48
2024/03/22 04:43:48;;;;;;;;;;;7.60;78.10;;;;;;4976719;28;88463;-48
2024/03/22 04:46:13;;;;;;;;;;;7.60;77.90;;;;;;4981069;28;87035;-49
2024/03/22 04:48:39;;;;;;;;;;;7.60;77.90;;;;;;4979494;28;86800;-49
2024/03/22 04:51:04;;;;;;;;;;;7.50;78.00;;;;;;4981733;28;86997;-50
2024/03/22 04:53:30;;;;;;;;;;;7.50;78.00;;;;;;4979297;28;87553;-49
2024/03/22 04:55:55;;;;;;;;;;;7.60;78.00;;;;;;4976062;28;88577;-49
2024/03/22 04:58:21;;;;;;;;;;;7.50;77.90;;;;;;4973058;28;87001;-49
2024/03/22 05:00:48;;;;;;;;;;;7.50;78.00;;;;;;4972843;28;86880;-49
2024/03/22 05:03:13;;;;;;;;;;;7.50;77.90;;;;;;4976647;28;87493;-49
2024/03/22 05:05:39;;;;;;;;;;;7.50;77.70;;;;;;4977899;28;87486;-49
2024/03/22 05:08:05;;;;;;;;;;;7.50;77.90;;;;;;4977120;28;87019;-50
2024/03/22 05:10:31;;;;;;;;;;;7.50;77.70;;;;;;4978142;28;87329;-50
2024/03/22 05:12:57;;;;;;;;;;;7.50;77.80;;;;;;4977201;28;86567;-50
2024/03/22 05:15:23;;;;;;;;;;;7.50;77.90;;;;;;4977993;28;87036;-50
2024/03/22 05:17:49;;;;;;;;;;;7.50;77.90;;;;;;4977980;28;87013;-47
2024/03/22 05:20:16;;;;;;;;;;;7.40;77.70;;;;;;4971995;28;88728;-49
2024/03/22 05:22:42;;;;;;;;;;;7.40;77.90;;;;;;4977098;28;88482;-49
2024/03/22 05:25:08;;;;;;;;;;;7.40;77.90;;;;;;4973463;28;87682;-48
2024/03/22 05:27:33;;;;;;;;;;;7.40;77.80;;;;;;4976933;28;87788;-49
2024/03/22 05:29:59;;;;;;;;;;;7.40;78.00;;;;;;4975907;28;87559;-50
2024/03/22 05:32:25;;;;;;;;;;;7.40;77.90;;;;;;4977541;28;87490;-47
2024/03/22 05:34:51;;;;;;;;;;;7.40;78.00;;;;;;4978488;28;87359;-49
2024/03/22 05:37:16;;;;;;;;;;;7.40;77.80;;;;;;4973659;28;86264;-49
2024/03/22 05:39:42;;;;;;;;;;;7.40;77.80;;;;;;4977213;28;87411;-49
2024/03/22 05:42:08;;;;;;;;;;;7.40;77.90;;;;;;4976544;28;87965;-49
2024/03/22 05:44:33;;;;;;;;;;;7.30;77.90;;;;;;4975790;28;87948;-50
2024/03/22 05:46:59;;;;;;;;;;;7.40;77.90;;;;;;4973831;28;87908;-49
2024/03/22 05:49:24;;;;;;;;;;;7.40;77.90;;;;;;4975553;28;87399;-49
2024/03/22 05:51:50;;;;;;;;;;;7.30;77.90;;;;;;4974329;28;87082;-49
2024/03/22 05:54:16;;;;;;;;;;;7.30;78.00;;;;;;4976774;28;87600;-49
2024/03/22 05:56:41;;;;;;;;;;;7.30;78.00;;;;;;4975018;28;86911;-49
2024/03/22 05:59:07;;;;;;;;;;;7.30;77.80;;;;;;4979860;28;87457;-49
2024/03/22 06:01:32;;;;;;;;;;;7.40;77.90;;;;;;4976255;28;86586;-49
2024/03/22 06:03:58;;;;;;;;;;;7.30;77.90;;;;;;4981439;28;86981;-50
2024/03/22 06:06:25;;;;;;;;;;;7.30;78.20;;;;;;4975221;28;87138;-49
2024/03/22 06:08:54;;;;;;;;;;;7.30;78.10;;;;;;4976322;28;88079;-48
2024/03/22 06:11:23;;;;;;;;;;;7.40;77.90;;;;;;4976366;28;88559;-49
2024/03/22 06:13:49;;;;;;;;;;;7.30;77.90;;;;;;4984301;28;86952;-49
2024/03/22 06:16:15;;;;;;;;;;;7.30;78.00;;;;;;4976600;28;86908;-49
2024/03/22 06:18:40;;;;;;;;;;;7.30;77.90;;;;;;4977882;28;88586;-49
2024/03/22 06:21:06;;;;;;;;;;;7.30;78.00;;;;;;4976029;28;87577;-49
2024/03/22 06:23:32;;;;;;;;;;;7.30;78.00;;;;;;4976081;28;86997;-49
2024/03/22 06:25:58;;;;;;;;;;;7.30;78.10;;;;;;4977490;28;87954;-49
2024/03/22 06:28:25;;;;;;;;;;;7.30;78.10;;;;;;4975184;28;89189;-49
2024/03/22 06:30:51;;;;;;;;;;;7.30;78.10;;;;;;4973865;28;86975;-46
2024/03/22 06:33:16;;;;;;;;;;;7.30;78.00;;;;;;4975216;28;88289;-49
2024/03/22 06:35:42;;;;;;;;;;;7.30;78.10;;;;;;4978619;28;88296;-49
2024/03/22 06:38:08;;;;;;;;;;;7.30;78.10;;;;;;4978078;28;86987;-49
2024/03/22 06:40:33;;;;;;;;;;;7.30;78.00;;;;;;4975620;28;88520;-49
2024/03/22 06:42:59;;;;;;;;;;;7.30;78.10;;;;;;4977386;28;87086;-49
2024/03/22 06:45:24;;;;;;;;;;;7.30;78.30;;;;;;4975004;28;87010;-49
2024/03/22 06:47:50;;;;;;;;;;;7.30;78.30;;;;;;4975976;28;88143;-49
2024/03/22 06:50:23;;;;;;;;;;;7.20;78.30;;;;;;4972972;28;86730;-48
2024/03/22 06:52:53;;;;;;;;;;;7.30;78.30;;;;;;4973746;28;87213;-48
2024/03/22 06:55:19;;;;;;;;;;;7.30;78.30;;;;;;4972249;28;87729;-47
2024/03/22 06:57:46;;;;;;;;;;;7.30;78.20;;;;;;4979259;28;87829;-49
2024/03/22 07:00:13;;;;;;;;;;;7.30;78.20;;;;;;4970509;28;87537;-49
2024/03/22 07:02:39;;;;;;;;;;;7.30;78.30;;;;;;4977250;28;87037;-49
2024/03/22 07:05:05;;;;;;;;;;;7.30;78.30;;;;;;4973402;28;87898;-50
2024/03/22 07:07:30;;;;;;;;;;;7.30;78.50;;;;;;4975398;28;87541;-48
2024/03/22 07:09:56;;;;;;;;;;;7.30;78.50;;;;;;4970564;28;87996;-48
2024/03/22 07:12:22;;;;;;;;;;;7.30;78.50;;;;;;4975008;28;87703;-49
2024/03/22 07:14:48;;;;;;;;;;;7.30;78.50;;;;;;4970893;28;86912;-47
2024/03/22 07:17:15;;;;;;;;;;;7.30;78.40;;;;;;4976221;28;87026;-50
2024/03/22 07:19:40;;;;;;;;;;;7.30;78.40;;;;;;4975879;28;88191;-49
2024/03/22 07:22:06;;;;;;;;;;;7.30;78.40;;;;;;4974616;28;88060;-48
2024/03/22 07:24:32;;;;;;;;;;;7.30;78.50;;;;;;4975936;28;88868;-49
2024/03/22 07:26:58;;;;;;;;;;;7.30;78.50;;;;;;4977784;28;87745;-49
2024/03/22 07:29:23;;;;;;;;;;;7.30;78.50;;;;;;4971216;28;87162;-50
2024/03/22 07:31:49;;;;;;;;;;;7.30;78.50;;;;;;4972456;28;87023;-47
2024/03/22 07:34:15;;;;;;;;;;;7.30;78.50;;;;;;4972665;28;87582;-48
2024/03/22 07:36:40;;;;;;;;;;;7.30;78.50;;;;;;4971256;28;87942;-48
2024/03/22 07:39:07;;;;;;;;;;;7.30;78.40;;;;;;4972570;28;86980;-51
2024/03/22 07:41:32;;;;;;;;;;;7.30;78.40;;;;;;4976334;28;88708;-49
2024/03/22 07:43:59;;;;;;;;;;;7.30;78.30;;;;;;4970467;28;86997;-48
2024/03/22 07:46:25;;;;;;;;;;;7.30;78.40;;;;;;4975972;28;89446;-48
2024/03/22 07:48:51;;;;;;;;;;;7.30;78.40;;;;;;4983334;28;87111;-49
2024/03/22 07:51:16;;;;;;;;;;;7.30;78.40;;;;;;4974901;28;87686;-48
2024/03/22 07:53:42;;;;;;;;;;;7.30;78.40;;;;;;4970459;28;87869;-49
2024/03/22 07:56:07;;;;;;;;;;;7.30;78.30;;;;;;4975484;28;87484;-48
2024/03/22 07:58:33;;;;;;;;;;;7.30;78.40;;;;;;4975701;28;87758;-48
2024/03/22 08:00:59;;;;;;;;;;;7.30;78.10;;;;;;4977095;28;88487;-49
2024/03/22 08:03:24;;;;;;;;;;;7.30;78.10;;;;;;4978434;28;86264;-48
2024/03/22 08:05:50;;;;;;;;;;;7.40;78.00;;;;;;4975177;28;88946;-49
2024/03/22 08:08:15;;;;;;;;;;;7.30;78.00;;;;;;4978515;28;87380;-49
2024/03/22 08:10:41;;;;;;;;;;;7.40;78.10;;;;;;4978086;28;87946;-49
2024/03/22 08:13:07;;;;;;;;;;;7.30;78.00;;;;;;4975361;28;87454;-48
2024/03/22 08:15:33;;;;;;;;;;;7.40;78.20;;;;;;4977349;28;86995;-49
2024/03/22 08:17:58;;;;;;;;;;;7.40;78.20;;;;;;4973004;28;87428;-49
2024/03/22 08:20:24;;;;;;;;;;;7.30;78.80;;;;;;4973157;28;87495;-48
2024/03/22 08:22:50;;;;;;;;;;;7.30;78.10;;;;;;4982194;28;86981;-49
2024/03/22 08:25:20;;;;;;;;;;;7.40;78.20;;;;;;4974382;28;87567;-49
2024/03/22 08:27:46;;;;;;;;;;;7.40;78.20;;;;;;4967362;28;86300;-50
2024/03/22 08:30:12;;;;;;;;;;;7.40;78.10;;;;;;4977725;28;87478;-50
2024/03/22 08:32:37;;;;;;;;;;;7.40;78.10;;;;;;4974870;28;87409;-48
2024/03/22 08:35:04;;;;;;;;;;;7.40;78.20;;;;;;4972006;28;87937;-49
2024/03/22 08:37:30;;;;;;;;;;;7.40;78.10;;;;;;4974811;28;88452;-50
2024/03/22 08:39:55;;;;;;;;;;;7.40;78.10;;;;;;4972848;28;88859;-48
2024/03/22 08:42:21;;;;;;;;;;;7.40;78.10;;;;;;4978858;28;88470;-47
2024/03/22 08:44:46;;;;;;;;;;;7.40;78.10;;;;;;4976718;28;86911;-50
2024/03/22 08:47:12;;;;;;;;;;;7.40;78.00;;;;;;4975891;28;87045;-47
2024/03/22 08:49:37;;;;;;;;;;;7.40;78.10;;;;;;4977071;28;87043;-47
2024/03/22 08:52:03;;;;;;;;;;;7.40;77.90;;;;;;4976108;28;87858;-49
2024/03/22 08:54:28;;;;;;;;;;;7.40;77.60;;;;;;4976553;28;87004;-49
2024/03/22 08:56:54;;;;;;;;;;;7.40;77.70;;;;;;4976844;28;86955;-48
2024/03/22 08:59:20;;;;;;;;;;;7.40;77.80;;;;;;4976709;28;88883;-51
2024/03/22 09:01:45;;;;;;;;;;;7.50;77.80;;;;;;4975288;28;87098;-49
2024/03/22 09:04:11;;;;;;;;;;;7.50;77.70;;;;;;4974172;28;87307;-49
2024/03/22 09:06:36;;;;;;;;;;;7.50;77.90;;;;;;4982550;28;87623;-49
2024/03/22 09:09:03;;;;;;;;;;;7.50;77.90;;;;;;4976229;28;86888;-47
2024/03/22 09:11:29;;;;;;;;;;;7.50;77.50;;;;;;4977240;28;89107;-48
2024/03/22 09:13:54;;;;;;;;;;;7.50;77.40;;;;;;4970410;28;86887;-48
2024/03/22 09:16:20;;;;;;;;;;;7.50;77.50;;;;;;4977985;28;87683;-49
2024/03/22 09:18:46;;;;;;;;;;;7.50;77.60;;;;;;4974831;28;88552;-49
2024/03/22 09:21:11;;;;;;;;;;;7.50;77.60;;;;;;4977074;28;86943;-49
2024/03/22 09:23:37;;;;;;;;;;;7.50;77.70;;;;;;4973201;28;88055;-48
2024/03/22 09:26:02;;;;;;;;;;;7.50;77.70;;;;;;4972912;28;87760;-47
2024/03/22 09:28:28;;;;;;;;;;;7.50;77.70;;;;;;4982000;28;87717;-48
2024/03/22 09:30:54;;;;;;;;;;;7.50;77.60;;;;;;4977894;28;88096;-49
2024/03/22 09:33:19;;;;;;;;;;;7.50;77.80;;;;;;4973499;28;86979;-52
2024/03/22 09:35:45;;;;;;;;;;;7.50;77.70;;;;;;4979534;28;89465;-49
2024/03/22 09:38:10;;;;;;;;;;;7.50;77.80;;;;;;4974594;28;87600;-47
2024/03/22 09:40:41;;;;;;;;;;;7.60;77.90;;;;;;4969660;28;87128;-49
2024/03/22 09:43:07;;;;;;;;;;;7.60;77.40;;;;;;4973434;28;87002;-49
2024/03/22 09:45:33;;;;;;;;;;;7.60;77.40;;;;;;4977695;28;87687;-49
2024/03/22 09:47:59;;;;;;;;;;;7.60;77.50;;;;;;4972682;28;88223;-47
2024/03/22 09:50:25;;;;;;;;;;;7.60;77.00;;;;;;4980187;28;88942;-49
2024/03/22 09:52:51;;;;;;;;;;;7.60;77.30;;;;;;4978509;28;87276;-49
2024/03/22 09:55:18;;;;;;;;;;;7.70;77.40;;;;;;4978234;28;87345;-49
2024/03/22 09:57:44;;;;;;;;;;;7.70;77.40;;;;;;4973417;28;88087;-50
2024/03/22 10:00:13;;;;;;;;;;;7.70;77.30;;;;;;4972365;28;87479;-50
2024/03/22 10:02:39;;;;;;;;;;;7.70;77.20;;;;;;4978446;28;87471;-49
2024/03/22 10:05:05;;;;;;;;;;;7.70;77.00;;;;;;4974652;28;87777;-48
2024/03/22 10:07:31;;;;;;;;;;;7.70;76.80;;;;;;4972772;28;87020;-50
2024/03/22 10:10:00;;;;;;;;;;;7.70;76.80;;;;;;4977139;28;87052;-49
2024/03/22 10:12:25;;;;;;;;;;;7.70;76.80;;;;;;4977638;28;87973;-49
2024/03/22 10:14:54;;;;;;;;;;;7.80;76.80;;;;;;4976053;28;88256;-48
2024/03/22 10:17:20;;;;;;;;;;;7.80;77.00;;;;;;4973658;28;87412;-49
2024/03/22 10:19:45;;;;;;;;;;;7.80;77.20;;;;;;4974353;28;87082;-50
2024/03/22 10:22:11;;;;;;;;;;;7.80;76.90;;;;;;4973938;28;87006;-48
2024/03/22 10:24:36;;;;;;;;;;;7.80;76.70;;;;;;4969591;28;87586;-48
2024/03/22 10:27:02;;;;;;;;;;;7.90;76.70;;;;;;4972719;28;87213;-50
2024/03/22 10:29:28;;;;;;;;;;;7.90;76.70;;;;;;4978532;28;86552;-51
2024/03/22 10:31:55;;;;;;;;;;;7.90;76.40;;;;;;4976255;28;88062;-47
2024/03/22 10:34:20;;;;;;;;;;;7.90;76.40;;;;;;4976290;28;87818;-48
2024/03/22 10:36:46;;;;;;;;;;;7.90;76.70;;;;;;4968964;28;88370;-49
2024/03/22 10:39:13;;;;;;;;;;;7.90;76.90;;;;;;4972438;28;87043;-48
2024/03/22 10:41:39;;;;;;;;;;;8.00;76.80;;;;;;4973556;28;87798;-49
2024/03/22 10:44:04;;;;;;;;;;;8.00;76.40;;;;;;4973044;28;88625;-50
2024/03/22 10:46:30;;;;;;;;;;;8.00;76.50;;;;;;4976495;28;87373;-49
2024/03/22 10:49:00;;;;;;;;;;;8.00;75.80;;;;;;4973008;28;87049;-49
2024/03/22 10:51:25;;;;;;;;;;;8.00;76.10;;;;;;4972941;28;87506;-52
2024/03/22 10:53:54;;;;;;;;;;;8.00;75.90;;;;;;4976698;28;86273;-49
2024/03/22 10:56:20;;;;;;;;;;;8.00;76.10;;;;;;4971928;28;87941;-50
2024/03/22 10:58:47;;;;;;;;;;;8.10;76.00;;;;;;4976728;28;87260;-47
2024/03/22 11:01:25;;;;;;;;;;;8.10;76.60;;;;;;4972371;28;88404;-49
2024/03/22 11:03:51;;;;;;;;;;;8.10;75.90;;;;;;4975922;28;88502;-49
2024/03/22 11:06:22;;;;;;;;;;;8.10;75.90;;;;;;4974394;28;87011;-49
2024/03/22 11:08:51;;;;;;;;;;;8.10;74.90;;;;;;4976019;28;86939;-49
2024/03/22 11:11:22;;;;;;;;;;;8.20;75.50;;;;;;4976332;28;86837;-49
2024/03/22 11:13:50;;;;;;;;;;;8.20;75.00;;;;;;4969703;28;87155;-49
2024/03/22 11:16:16;;;;;;;;;;;8.20;75.30;;;;;;4980998;28;86857;-50
2024/03/22 11:18:42;;;;;;;;;;;8.20;75.20;;;;;;4974450;28;86321;-49
2024/03/22 11:21:08;;;;;;;;;;;8.20;75.30;;;;;;4974672;28;86964;-51
2024/03/22 11:23:37;;;;;;;;;;;8.20;75.00;;;;;;4973437;28;88565;-49
2024/03/22 11:26:03;;;;;;;;;;;8.30;75.00;;;;;;4978290;28;88059;-49
2024/03/22 11:28:29;;;;;;;;;;;8.30;75.00;;;;;;4976354;28;87697;-57
2024/03/22 11:30:55;;;;;;;;;;;8.50;66.00;;;;;;4974456;28;86887;-59
2024/03/22 11:33:20;;;;;;;;;;;8.70;63.70;;;;;;4974023;28;87335;-47
2024/03/22 11:38:30;;;;;;;;;;;8.60;66.80;;;;;;5055980;27;80170;-57
2024/03/22 11:40:57;;;;;;;;;;;8.50;68.20;;;;;;5056634;27;80264;-53
2024/03/22 11:43:23;;;;;;;;;;;8.40;67.90;;;;;;5056675;27;80214;-48
2024/03/22 11:45:48;;;;;;;;;;;8.40;66.50;;;;;;5053414;27;81557;-49
2024/03/22 11:48:14;;;;;;;;;;;8.40;64.90;;;;;;5052636;27;80257;-45
2024/03/22 11:50:40;;;;;;;;;;;8.50;67.70;;;;;;5051443;27;80286;-50
2024/03/22 11:53:05;;;;;;;;;;;8.40;69.50;;;;;;5050277;27;81624;-48
2024/03/22 11:55:31;;;;;;;;;;;8.50;67.50;;;;;;5055510;27;81219;-56
2024/03/22 11:57:57;;;;;;;;;;;8.50;68.70;;;;;;5054694;27;80609;-59
2024/03/22 12:00:25;;;;;;;;;;;8.50;68.10;;;;;;5054788;27;80656;-59
2024/03/22 12:02:51;;;;;;;;;;;8.50;68.00;;;;;;5050878;27;81356;-60
2024/03/22 12:05:17;;;;;;;;;;;8.60;67.10;;;;;;5053172;27;80528;-59
2024/03/22 12:07:43;;;;;;;;;;;8.70;68.20;;;;;;5051077;27;80198;-60
2024/03/22 12:10:09;;;;;;;;;;;8.70;66.10;;;;;;5052634;27;80179;-60
2024/03/22 12:12:36;;;;;;;;;;;8.70;65.90;;;;;;5050460;27;80715;-49
2024/03/22 12:15:02;;;;;;;;;;;8.70;66.80;;;;;;5053495;27;80659;-53
2024/03/22 12:17:27;;;;;;;;;;;8.90;67.00;;;;;;5053549;27;80275;-58
2024/03/22 12:19:53;;;;;;;;;;;8.90;66.10;;;;;;5060096;27;81160;-61
2024/03/22 12:22:19;;;;;;;;;;;8.90;67.40;;;;;;5061423;27;81192;-57
2024/03/22 12:24:45;;;;;;;;;;;9.00;67.90;;;;;;5053671;27;81177;-52
2024/03/22 12:27:10;;;;;;;;;;;9.00;67.50;;;;;;5054579;27;80354;-54
2024/03/22 12:29:36;;;;;;;;;;;9.00;66.60;;;;;;5053710;27;80629;-52
2024/03/22 12:32:03;;;;;;;;;;;9.10;65.30;;;;;;5059100;27;80773;-58
2024/03/22 12:34:29;;;;;;;;;;;9.20;63.80;;;;;;5050796;27;80957;-56
2024/03/22 12:36:55;;;;;;;;;;;9.10;63.80;;;;;;5057585;27;80436;-54
2024/03/22 12:39:21;;;;;;;;;;;9.20;64.60;;;;;;5050716;27;80234;-55
2024/03/22 12:41:46;;;;;;;;;;;9.20;63.20;;;;;;5055798;27;80274;-52
2024/03/22 12:44:12;;;;;;;;;;;9.30;61.70;;;;;;5052344;27;80690;-59
2024/03/22 12:46:38;;;;;;;;;;;9.30;64.00;;;;;;5052456;27;80455;-60
2024/03/22 12:49:04;;;;;;;;;;;9.40;65.40;;;;;;5047041;27;80233;-58
2024/03/22 12:51:29;;;;;;;;;;;9.40;60.30;;;;;;5035844;28;81074;-50
2024/03/22 12:53:55;;;;;;;;;;;9.50;62.90;;;;;;5042672;28;81091;-56
2024/03/22 12:56:21;;;;;;;;;;;9.60;62.40;;;;;;5045608;27;80210;-56
2024/03/22 12:58:47;;;;;;;;;;;9.60;63.20;;;;;;5043794;28;80914;-59
2024/03/22 13:01:12;;;;;;;;;;;9.70;62.80;;;;;;5036565;28;80259;-55
2024/03/22 13:03:38;;;;;;;;;;;9.70;62.70;;;;;;5043252;28;80630;-61
2024/03/22 13:06:05;;;;;;;;;;;9.70;62.00;;;;;;5041371;28;80230;-55
2024/03/22 13:08:31;;;;;;;;;;;9.70;61.40;;;;;;5035588;28;80451;-57
2024/03/22 13:10:57;;;;;;;;;;;9.60;62.60;;;;;;5044158;28;81375;-56
2024/03/22 13:13:22;;;;;;;;;;;9.60;62.30;;;;;;5038140;28;80206;-57
2024/03/22 13:15:48;;;;;;;;;;;9.60;60.20;;;;;;5038428;28;80292;-56
2024/03/22 13:18:13;;;;;;;;;;;9.80;60.80;;;;;;5041784;28;80833;-56
2024/03/22 13:20:39;;;;;;;;;;;9.80;60.70;;;;;;5039473;28;80397;-56
2024/03/22 13:23:05;;;;;;;;;;;9.90;61.70;;;;;;5036103;27;80250;-57
2024/03/22 13:25:30;;;;;;;;;;;10.00;62.30;;;;;;5041831;28;80884;-56
2024/03/22 13:27:56;;;;;;;;;;;10.00;62.40;;;;;;5041044;28;80406;-56
2024/03/22 13:30:22;;;;;;;;;;;10.00;63.00;;;;;;5037839;28;80805;-55
2024/03/22 13:32:47;;;;;;;;;;;10.00;63.50;;;;;;5037943;28;80415;-56
2024/03/22 13:35:13;;;;;;;;;;;9.90;63.70;;;;;;5038921;28;80174;-57
2024/03/22 13:37:40;;;;;;;;;;;10.00;64.20;;;;;;5036114;28;82219;-56
2024/03/22 13:40:06;;;;;;;;;;;10.00;64.40;;;;;;5036690;28;80427;-56
2024/03/22 13:42:31;;;;;;;;;;;10.00;64.80;;;;;;5036007;27;80406;-55
2024/03/22 13:44:57;;;;;;;;;;;10.00;64.80;;;;;;5038585;28;80131;-56
2024/03/22 13:47:23;;;;;;;;;;;10.00;64.90;;;;;;5042507;28;80588;-56
2024/03/22 13:49:49;;;;;;;;;;;10.00;65.30;;;;;;5041183;28;81663;-56
2024/03/22 13:52:14;;;;;;;;;;;10.10;65.50;;;;;;5040677;28;80613;-57
2024/03/22 13:54:40;;;;;;;;;;;10.10;65.70;;;;;;5036177;28;81220;-56
2024/03/22 13:57:05;;;;;;;;;;;10.10;66.10;;;;;;5037064;28;80395;-57
2024/03/22 13:59:31;;;;;;;;;;;10.10;66.10;;;;;;5038989;28;80241;-56
2024/03/22 14:01:57;;;;;;;;;;;10.10;66.40;;;;;;5040406;27;80170;-56
2024/03/22 14:04:23;;;;;;;;;;;10.10;66.30;;;;;;5038882;28;81785;-56
2024/03/22 14:06:49;;;;;;;;;;;10.10;65.20;;;;;;5042188;28;80213;-53
2024/03/22 14:09:15;;;;;;;;;;;10.00;64.90;;;;;;5040988;28;81333;-58
2024/03/22 14:11:42;;;;;;;;;;;9.90;65.00;;;;;;5037326;28;80922;-47
2024/03/22 14:14:14;;;;;;;;;;;10.00;63.60;;;;;;5035841;28;80242;-47
2024/03/22 14:16:39;;;;;;;;;;;10.00;61.80;;;;;;5042591;28;80744;-57
2024/03/22 14:19:05;;;;;;;;;;;10.00;61.70;;;;;;5035104;28;80330;-60
2024/03/22 14:21:30;;;;;;;;;;;10.00;61.30;;;;;;5040302;28;80269;-45
2024/03/22 14:23:56;;;;;;;;;;;10.10;61.40;;;;;;5037882;28;80492;-49